createdAt,value
2024-01-16T00:02:11.605Z,-0.05
2024-01-16T00:04:38.710Z,-0.38
2024-01-16T00:07:05.874Z,0.19
2024-01-16T00:09:36.074Z,-0.30
2024-01-16T00:12:05.724Z,-0.24
2024-01-16T00:14:37.568Z,-0.14
2024-01-16T00:17:04.443Z,0.06
2024-01-16T00:19:31.007Z,0.32
2024-01-16T00:21:57.557Z,0.10
2024-01-16T00:24:24.331Z,0.28
2024-01-16T00:26:52.039Z,0.32
2024-01-16T00:29:18.691Z,0.03
2024-01-16T00:31:45.266Z,0.09
2024-01-16T00:34:11.807Z,0.40
2024-01-16T00:36:38.327Z,0.32
2024-01-16T00:39:04.852Z,0.20
2024-01-16T00:41:31.605Z,0.04
2024-01-16T00:43:58.149Z,-0.23
2024-01-16T00:46:24.687Z,-0.42
2024-01-16T00:48:51.326Z,-0.41
2024-01-16T00:51:17.849Z,-0.56
2024-01-16T00:53:45.225Z,-0.39
2024-01-16T00:56:12.128Z,0.04
2024-01-16T00:58:38.904Z,0.17
2024-01-16T01:01:05.684Z,0.18
2024-01-16T01:03:32.336Z,0.07
2024-01-16T01:05:59.370Z,0.16
2024-01-16T01:08:25.979Z,-0.03
2024-01-16T01:10:52.609Z,-0.14
2024-01-16T01:13:19.257Z,0.05
2024-01-16T01:15:45.867Z,-0.43
2024-01-16T01:18:12.492Z,-0.18
2024-01-16T01:20:39.081Z,-0.29
2024-01-16T01:23:05.617Z,-0.37
2024-01-16T01:25:32.139Z,-0.18
2024-01-16T01:27:58.673Z,-0.62
2024-01-16T01:30:25.375Z,-0.65
2024-01-16T01:32:52.164Z,-0.69
2024-01-16T01:35:20.809Z,-0.42
2024-01-16T01:37:47.535Z,-0.22
2024-01-16T01:40:16.714Z,-0.07
2024-01-16T01:42:43.855Z,-0.59
2024-01-16T01:45:11.423Z,-0.31
2024-01-16T01:47:45.005Z,-0.66
2024-01-16T01:50:12.200Z,-0.83
2024-01-16T01:52:41.654Z,-0.53
2024-01-16T01:55:14.564Z,-0.89
2024-01-16T01:57:43.800Z,-0.33
2024-01-16T02:00:11.065Z,-0.18
2024-01-16T02:02:37.693Z,-0.21
2024-01-16T02:05:04.891Z,-0.43
2024-01-16T02:07:33.971Z,-0.09
2024-01-16T02:10:01.560Z,-0.12
2024-01-16T02:12:28.297Z,-0.11
2024-01-16T02:14:54.766Z,-0.33
2024-01-16T02:17:21.294Z,-0.18
2024-01-16T02:19:47.783Z,-0.30
2024-01-16T02:22:20.819Z,-0.73
2024-01-16T02:24:47.660Z,-0.97
2024-01-16T02:27:14.319Z,-0.77
2024-01-16T02:29:44.429Z,-0.29
2024-01-16T02:32:13.975Z,-0.65
2024-01-16T02:34:40.794Z,-0.87
2024-01-16T02:37:07.320Z,-0.92
2024-01-16T02:39:33.867Z,-0.58
2024-01-16T02:42:00.354Z,-0.44
2024-01-16T02:44:26.968Z,-0.32
2024-01-16T02:46:53.495Z,-0.08
2024-01-16T02:49:20.056Z,-0.16
2024-01-16T02:51:46.581Z,-0.29
2024-01-16T02:54:13.189Z,-0.27
2024-01-16T02:56:39.803Z,-0.26
2024-01-16T02:59:06.692Z,-0.09
2024-01-16T03:01:33.244Z,-0.08
2024-01-16T03:03:59.766Z,0.03
2024-01-16T03:06:26.584Z,0.04
2024-01-16T03:08:53.430Z,-0.27
2024-01-16T03:11:20.047Z,-0.49
2024-01-16T03:13:46.762Z,-1.12
2024-01-16T03:16:13.604Z,-1.09
2024-01-16T03:18:40.220Z,-1.68
2024-01-16T03:21:07.421Z,-1.67
2024-01-16T03:23:34.159Z,-1.20
2024-01-16T03:26:00.702Z,-1.33
2024-01-16T03:28:27.193Z,-1.28
2024-01-16T03:30:55.012Z,-1.41
2024-01-16T03:33:21.831Z,-1.21
2024-01-16T03:35:48.758Z,-0.96
2024-01-16T03:38:15.391Z,-1.58
2024-01-16T03:40:41.978Z,-1.41
2024-01-16T03:43:08.928Z,-2.01
2024-01-16T03:45:35.445Z,-1.77
2024-01-16T03:48:04.527Z,-1.74
2024-01-16T03:50:31.260Z,-1.41
2024-01-16T03:52:57.807Z,-1.79
2024-01-16T03:55:24.279Z,-1.63
2024-01-16T03:57:52.205Z,-1.44
2024-01-16T04:00:18.849Z,-1.22
2024-01-16T04:02:45.508Z,-1.14
2024-01-16T04:05:12.257Z,-1.54
2024-01-16T04:07:38.841Z,-1.30
2024-01-16T04:10:07.710Z,-1.15
2024-01-16T04:12:34.192Z,-1.53
2024-01-16T04:15:00.734Z,-1.47
2024-01-16T04:17:27.353Z,-1.34
2024-01-16T04:19:53.841Z,-1.25
2024-01-16T04:22:20.348Z,-1.51
2024-01-16T04:24:48.006Z,-0.97
2024-01-16T04:27:14.613Z,-1.35
2024-01-16T04:29:41.158Z,-1.50
2024-01-16T04:32:07.726Z,-1.68
2024-01-16T04:34:35.526Z,-1.31
2024-01-16T04:37:02.133Z,-1.36
2024-01-16T04:39:28.610Z,-1.36
2024-01-16T04:41:55.278Z,-1.40
2024-01-16T04:44:21.846Z,-1.68
2024-01-16T04:46:48.632Z,-2.07
2024-01-16T04:49:15.171Z,-2.09
2024-01-16T04:51:41.686Z,-2.19
2024-01-16T04:54:08.497Z,-2.40
2024-01-16T04:56:35.212Z,-2.02
2024-01-16T04:59:01.965Z,-1.80
2024-01-16T05:01:28.480Z,-1.85
2024-01-16T05:03:55.898Z,-1.83
2024-01-16T05:06:22.678Z,-1.82
2024-01-16T05:08:49.822Z,-1.82
2024-01-16T05:11:16.494Z,-1.78
2024-01-16T05:13:43.102Z,-1.94
2024-01-16T05:16:10.534Z,-2.09
2024-01-16T05:18:37.233Z,-1.81
2024-01-16T05:21:05.710Z,-1.37
2024-01-16T05:23:32.277Z,-1.09
2024-01-16T05:25:59.036Z,-1.03
2024-01-16T05:28:25.673Z,-0.87
2024-01-16T05:30:52.319Z,-1.51
2024-01-16T05:33:19.027Z,-1.66
2024-01-16T05:35:45.616Z,-1.56
2024-01-16T05:38:13.570Z,-1.72
2024-01-16T05:40:40.994Z,-1.59
2024-01-16T05:43:07.547Z,-1.43
2024-01-16T05:45:34.092Z,-1.87
2024-01-16T05:48:00.840Z,-1.47
2024-01-16T05:50:27.689Z,-1.07
2024-01-16T05:52:54.503Z,-1.17
2024-01-16T05:55:22.513Z,-0.87
2024-01-16T05:57:49.063Z,-0.56
2024-01-16T06:00:16.008Z,-0.68
2024-01-16T06:02:42.522Z,-0.87
2024-01-16T06:05:09.247Z,-0.65
2024-01-16T06:07:35.825Z,-0.45
2024-01-16T06:10:03.586Z,-0.64
2024-01-16T06:12:30.652Z,-0.57
2024-01-16T06:14:59.070Z,-0.59
2024-01-16T06:17:25.689Z,-0.58
2024-01-16T06:19:52.186Z,-0.36
2024-01-16T06:22:18.688Z,-1.02
2024-01-16T06:24:45.174Z,-0.39
2024-01-16T06:27:11.650Z,-0.13
2024-01-16T06:29:38.184Z,0.07
2024-01-16T06:32:05.439Z,0.05
2024-01-16T06:34:32.072Z,0.10
2024-01-16T06:36:58.640Z,0.07
2024-01-16T06:39:25.111Z,0.35
2024-01-16T06:41:51.774Z,0.36
2024-01-16T06:44:20.184Z,0.19
2024-01-16T06:46:47.008Z,0.48
2024-01-16T06:49:13.768Z,0.40
2024-01-16T06:51:40.320Z,0.60
2024-01-16T06:54:06.862Z,0.49
2024-01-16T06:56:33.487Z,0.35
2024-01-16T06:59:00.017Z,0.54
2024-01-16T07:01:27.810Z,0.51
2024-01-16T07:03:54.361Z,0.56
2024-01-16T07:06:20.978Z,0.76
2024-01-16T07:08:47.732Z,0.59
2024-01-16T07:11:14.985Z,0.58
2024-01-16T07:13:42.495Z,0.38
2024-01-16T07:16:12.578Z,0.66
2024-01-16T07:18:39.559Z,0.70
2024-01-16T07:21:17.188Z,0.55
2024-01-16T07:23:43.702Z,0.91
2024-01-16T07:26:10.258Z,0.88
2024-01-16T07:28:36.753Z,0.85
2024-01-16T07:31:03.354Z,0.72
2024-01-16T07:33:30.000Z,0.76
2024-01-16T07:35:56.650Z,0.81
2024-01-16T07:38:23.546Z,0.77
2024-01-16T07:40:50.149Z,1.02
2024-01-16T07:43:16.922Z,1.07
2024-01-16T07:45:43.428Z,1.22
2024-01-16T07:48:09.964Z,1.46
2024-01-16T07:50:36.534Z,1.49
2024-01-16T07:53:03.156Z,1.65
2024-01-16T07:55:29.655Z,1.25
2024-01-16T07:57:56.562Z,0.95
2024-01-16T08:00:23.121Z,0.98
2024-01-16T08:02:50.108Z,1.13
2024-01-16T08:05:17.024Z,1.38
2024-01-16T08:07:44.649Z,0.83
2024-01-16T08:10:11.188Z,1.09
2024-01-16T08:12:38.441Z,1.42
2024-01-16T08:15:06.368Z,1.72
2024-01-16T08:17:32.884Z,1.71
2024-01-16T08:19:59.397Z,1.65
2024-01-16T08:22:25.932Z,1.52
2024-01-16T08:24:52.483Z,1.82
2024-01-16T08:27:20.619Z,1.75
2024-01-16T08:29:49.539Z,1.78
2024-01-16T08:32:16.168Z,2.03
2024-01-16T08:34:42.889Z,1.79
2024-01-16T08:37:10.402Z,1.85
2024-01-16T08:39:37.281Z,1.86
2024-01-16T08:42:04.239Z,2.16
2024-01-16T08:44:30.755Z,2.48
2024-01-16T08:46:58.766Z,2.14
2024-01-16T08:49:25.262Z,2.41
2024-01-16T08:51:51.935Z,2.50
2024-01-16T08:54:18.457Z,2.19
2024-01-16T08:56:44.973Z,2.28
2024-01-16T08:59:11.599Z,2.46
2024-01-16T09:01:38.285Z,2.38
2024-01-16T09:04:04.892Z,2.89
2024-01-16T09:06:31.611Z,2.89
2024-01-16T09:08:58.206Z,3.02
2024-01-16T09:11:24.709Z,3.15
2024-01-16T09:13:51.229Z,2.96
2024-01-16T09:16:17.838Z,2.63
2024-01-16T09:18:44.599Z,2.24
2024-01-16T09:21:11.192Z,2.67
2024-01-16T09:23:37.665Z,2.97
2024-01-16T09:26:04.280Z,2.56
2024-01-16T09:28:30.754Z,2.54
2024-01-16T09:30:57.357Z,2.97
2024-01-16T09:33:26.993Z,3.02
2024-01-16T09:35:53.817Z,3.19
2024-01-16T09:38:20.494Z,3.28
2024-01-16T09:40:51.906Z,3.11
2024-01-16T09:43:18.491Z,3.60
2024-01-16T09:45:48.520Z,3.69
2024-01-16T09:48:15.854Z,3.85
2024-01-16T09:50:42.469Z,3.57
2024-01-16T09:53:09.043Z,4.00
2024-01-16T09:55:35.600Z,4.16
2024-01-16T09:58:04.670Z,4.37
2024-01-16T10:00:31.867Z,4.31
2024-01-16T10:03:00.692Z,4.25
2024-01-16T10:05:27.666Z,3.62
2024-01-16T10:07:55.545Z,3.84
2024-01-16T10:10:30.359Z,3.54
2024-01-16T10:13:05.583Z,2.84
2024-01-16T10:15:32.654Z,2.79
2024-01-16T10:18:00.860Z,2.74
2024-01-16T10:20:35.544Z,3.12
2024-01-16T10:23:04.605Z,3.66
2024-01-16T10:25:31.130Z,4.08
2024-01-16T10:28:06.021Z,4.57
2024-01-16T10:30:32.682Z,4.66
2024-01-16T10:33:14.653Z,4.58
2024-01-16T10:35:41.257Z,4.97
2024-01-16T10:38:07.825Z,5.39
2024-01-16T10:40:35.301Z,5.93
2024-01-16T10:43:04.450Z,5.77
2024-01-16T10:45:31.747Z,5.88
2024-01-16T10:48:04.989Z,5.56
2024-01-16T10:50:32.474Z,4.68
2024-01-16T10:53:02.252Z,4.89
2024-01-16T10:55:30.775Z,4.38
2024-01-16T10:57:57.916Z,4.40
2024-01-16T11:00:25.750Z,4.25
2024-01-16T11:03:08.588Z,4.36
2024-01-16T11:05:36.861Z,4.12
2024-01-16T11:08:06.781Z,3.97
2024-01-16T11:10:36.134Z,3.83
2024-01-16T11:13:03.961Z,4.09
2024-01-16T11:15:30.657Z,3.80
2024-01-16T11:17:58.749Z,3.97
2024-01-16T11:20:41.292Z,3.86
2024-01-16T11:23:14.005Z,4.08
2024-01-16T11:25:40.634Z,4.12
2024-01-16T11:28:16.882Z,4.45
2024-01-16T11:30:45.124Z,4.23
2024-01-16T11:33:33.628Z,4.40
2024-01-16T11:36:01.279Z,4.44
2024-01-16T11:38:28.293Z,4.37
2024-01-16T11:40:55.278Z,4.28
2024-01-16T11:43:34.153Z,4.92
2024-01-16T11:46:02.219Z,5.01
2024-01-16T11:48:28.981Z,4.53
2024-01-16T11:50:55.895Z,4.78
2024-01-16T11:53:31.683Z,4.74
2024-01-16T11:56:38.151Z,5.70
2024-01-16T11:59:30.457Z,5.41
2024-01-16T12:02:02.824Z,5.22
2024-01-16T12:04:30.683Z,5.56
2024-01-16T12:07:01.864Z,5.93
2024-01-16T12:09:29.487Z,5.96
2024-01-16T12:12:03.903Z,6.63
2024-01-16T12:14:31.533Z,6.63
2024-01-16T12:17:14.785Z,8.98
2024-01-16T12:19:43.636Z,8.43
2024-01-16T12:22:11.288Z,6.81
2024-01-16T12:24:38.813Z,5.66
2024-01-16T12:27:06.336Z,5.50
2024-01-16T12:29:33.312Z,5.89
2024-01-16T12:32:10.820Z,6.06
2024-01-16T12:34:46.867Z,7.18
2024-01-16T12:37:13.938Z,7.69
2024-01-16T12:39:42.706Z,7.14
2024-01-16T12:42:11.178Z,8.28
2024-01-16T12:44:37.732Z,8.18
2024-01-16T12:47:04.485Z,7.47
2024-01-16T12:49:31.608Z,7.33
2024-01-16T12:52:22.035Z,6.41
2024-01-16T12:54:50.037Z,6.59
2024-01-16T12:57:22.697Z,5.84
2024-01-16T12:59:50.406Z,6.54
2024-01-16T13:02:25.684Z,5.18
2024-01-16T13:05:04.506Z,5.20
2024-01-16T13:07:32.953Z,5.06
2024-01-16T13:10:14.090Z,5.13
2024-01-16T13:12:40.832Z,4.81
2024-01-16T13:15:07.908Z,5.03
2024-01-16T13:17:38.201Z,5.00
2024-01-16T13:20:08.673Z,5.64
2024-01-16T13:22:43.328Z,6.33
2024-01-16T13:25:12.960Z,6.19
2024-01-16T13:27:39.584Z,6.06
2024-01-16T13:30:07.220Z,5.41
2024-01-16T13:32:37.859Z,5.19
2024-01-16T13:35:08.899Z,5.43
2024-01-16T13:37:38.322Z,4.90
2024-01-16T13:40:09.931Z,4.60
2024-01-16T13:42:36.710Z,4.54
2024-01-16T13:45:05.257Z,4.33
2024-01-16T13:47:32.118Z,4.34
2024-01-16T13:49:58.747Z,4.51
2024-01-16T13:52:27.241Z,4.26
2024-01-16T13:54:55.338Z,4.55
2024-01-16T13:57:22.048Z,4.66
2024-01-16T13:59:48.756Z,4.40
2024-01-16T14:02:15.353Z,4.18
2024-01-16T14:04:41.899Z,4.02
2024-01-16T14:07:12.597Z,4.52
2024-01-16T14:09:43.120Z,3.89
2024-01-16T14:12:10.703Z,3.88
2024-01-16T14:14:39.281Z,3.24
2024-01-16T14:17:06.196Z,2.96
2024-01-16T14:19:35.233Z,3.23
2024-01-16T14:22:02.052Z,3.10
2024-01-16T14:24:28.642Z,3.01
2024-01-16T14:26:57.734Z,2.77
2024-01-16T14:29:24.370Z,2.75
2024-01-16T14:31:51.100Z,2.85
2024-01-16T14:34:19.227Z,2.76
2024-01-16T14:36:46.814Z,2.76
2024-01-16T14:39:22.854Z,2.99
2024-01-16T14:41:49.429Z,3.11
2024-01-16T14:44:16.054Z,3.57
2024-01-16T14:46:47.178Z,3.95
2024-01-16T14:49:15.493Z,3.95
2024-01-16T14:51:42.430Z,3.34
2024-01-16T14:54:10.014Z,3.38
2024-01-16T14:56:36.781Z,3.37
2024-01-16T14:59:04.002Z,3.55
2024-01-16T15:01:30.528Z,3.62
2024-01-16T15:03:58.646Z,3.64
2024-01-16T15:06:27.816Z,3.85
2024-01-16T15:08:54.969Z,3.50
2024-01-16T15:11:22.059Z,3.18
2024-01-16T15:13:50.398Z,3.15
2024-01-16T15:16:17.633Z,2.75
2024-01-16T15:18:44.675Z,2.91
2024-01-16T15:21:11.784Z,2.61
2024-01-16T15:23:38.448Z,2.77
2024-01-16T15:26:05.896Z,2.51
2024-01-16T15:28:33.631Z,2.25
2024-01-16T15:31:07.346Z,2.26
2024-01-16T15:33:36.292Z,2.49
2024-01-16T15:36:04.342Z,2.59
2024-01-16T15:38:30.936Z,2.50
2024-01-16T15:40:57.434Z,2.48
2024-01-16T15:43:23.991Z,2.72
2024-01-16T15:45:50.652Z,2.91
2024-01-16T15:48:17.226Z,2.51
2024-01-16T15:50:43.848Z,2.55
2024-01-16T15:53:10.733Z,2.74
2024-01-16T15:55:37.271Z,2.81
2024-01-16T15:58:05.235Z,2.48
2024-01-16T16:00:32.187Z,2.56
2024-01-16T16:03:00.708Z,2.30
2024-01-16T16:05:27.467Z,2.35
2024-01-16T16:07:54.057Z,2.44
2024-01-16T16:10:20.623Z,2.83
2024-01-16T16:12:47.649Z,2.69
2024-01-16T16:15:14.123Z,2.78
2024-01-16T16:17:40.644Z,2.60
2024-01-16T16:20:10.452Z,2.85
2024-01-16T16:22:39.491Z,2.46
2024-01-16T16:25:06.860Z,2.42
2024-01-16T16:27:33.392Z,2.35
2024-01-16T16:29:59.996Z,2.16
2024-01-16T16:32:26.814Z,2.67
2024-01-16T16:34:54.283Z,2.31
2024-01-16T16:37:21.979Z,2.35
2024-01-16T16:39:48.694Z,2.35
2024-01-16T16:42:17.672Z,2.09
2024-01-16T16:44:45.622Z,2.24
2024-01-16T16:47:12.382Z,2.04
2024-01-16T16:49:38.970Z,2.27
2024-01-16T16:52:05.733Z,2.51
2024-01-16T16:54:32.413Z,2.34
2024-01-16T16:56:59.096Z,2.49
2024-01-16T16:59:25.846Z,2.41
2024-01-16T17:01:53.229Z,2.22
2024-01-16T17:04:19.961Z,2.54
2024-01-16T17:06:46.623Z,2.27
2024-01-16T17:09:13.296Z,2.36
2024-01-16T17:11:40.654Z,2.43
2024-01-16T17:14:07.217Z,2.02
2024-01-16T17:16:33.817Z,2.02
2024-01-16T17:19:00.556Z,2.24
2024-01-16T17:21:27.260Z,2.24
2024-01-16T17:23:54.133Z,2.12
2024-01-16T17:26:20.822Z,2.15
2024-01-16T17:28:47.567Z,2.13
2024-01-16T17:31:14.120Z,2.43
2024-01-16T17:33:40.788Z,2.28
2024-01-16T17:36:11.477Z,2.39
2024-01-16T17:38:38.114Z,2.50
2024-01-16T17:41:05.781Z,2.47
2024-01-16T17:43:32.448Z,2.67
2024-01-16T17:45:59.141Z,2.53
2024-01-16T17:48:26.717Z,2.40
2024-01-16T17:50:53.480Z,2.31
2024-01-16T17:53:20.524Z,2.15
2024-01-16T17:55:47.661Z,2.04
2024-01-16T17:58:16.664Z,1.88
2024-01-16T18:00:43.305Z,1.41
2024-01-16T18:03:24.091Z,1.97
2024-01-16T18:06:00.442Z,1.92
2024-01-16T18:08:27.218Z,1.74
2024-01-16T18:10:55.620Z,1.56
2024-01-16T18:13:23.254Z,2.03
2024-01-16T18:15:50.009Z,1.88
2024-01-16T18:18:18.273Z,1.65
2024-01-16T18:20:45.035Z,1.61
2024-01-16T18:23:11.958Z,1.90
2024-01-16T18:25:38.516Z,1.93
2024-01-16T18:28:05.456Z,1.97
2024-01-16T18:30:34.294Z,2.15
2024-01-16T18:33:02.036Z,1.89
2024-01-16T18:35:29.460Z,1.93
2024-01-16T18:37:56.135Z,1.78
2024-01-16T18:40:24.491Z,1.81
2024-01-16T18:42:51.259Z,1.72
2024-01-16T18:45:17.820Z,1.84
2024-01-16T18:47:45.792Z,1.92
2024-01-16T18:50:12.952Z,2.01
2024-01-16T18:52:41.022Z,2.19
2024-01-16T18:55:12.085Z,2.19
2024-01-16T18:57:40.499Z,2.03
2024-01-16T19:00:15.531Z,2.16
2024-01-16T19:02:49.175Z,2.04
2024-01-16T19:05:16.909Z,1.82
2024-01-16T19:07:44.557Z,1.94
2024-01-16T19:10:13.758Z,2.28
2024-01-16T19:12:47.833Z,2.19
2024-01-16T19:15:18.493Z,2.10
2024-01-16T19:17:51.346Z,2.09
2024-01-16T19:20:22.967Z,2.20
2024-01-16T19:22:56.103Z,2.00
2024-01-16T19:25:26.231Z,2.33
2024-01-16T19:27:53.270Z,2.00
2024-01-16T19:30:20.695Z,2.14
2024-01-16T19:32:49.610Z,2.20
2024-01-16T19:35:17.952Z,1.86
2024-01-16T19:37:45.455Z,2.00
2024-01-16T19:40:13.602Z,1.84
2024-01-16T19:42:40.723Z,2.11
2024-01-16T19:45:10.324Z,1.85
2024-01-16T19:47:40.493Z,2.07
2024-01-16T19:50:10.829Z,2.18
2024-01-16T19:52:37.331Z,2.05
2024-01-16T19:55:06.791Z,1.81
2024-01-16T19:57:33.786Z,1.72
2024-01-16T20:00:02.611Z,1.57
2024-01-16T20:02:29.303Z,1.55
2024-01-16T20:04:55.952Z,1.74
2024-01-16T20:07:22.442Z,1.67
2024-01-16T20:09:48.942Z,1.92
2024-01-16T20:12:15.530Z,1.71
2024-01-16T20:14:42.777Z,1.61
2024-01-16T20:17:09.293Z,1.54
2024-01-16T20:19:35.836Z,1.31
2024-01-16T20:22:02.386Z,1.84
2024-01-16T20:24:30.126Z,1.90
2024-01-16T20:26:56.637Z,1.50
2024-01-16T20:29:23.219Z,1.87
2024-01-16T20:31:49.754Z,1.46
2024-01-16T20:34:16.664Z,1.47
2024-01-16T20:36:43.433Z,1.34
2024-01-16T20:39:10.664Z,1.44
2024-01-16T20:41:37.164Z,1.33
2024-01-16T20:44:04.210Z,1.62
2024-01-16T20:46:30.802Z,1.65
2024-01-16T20:48:57.474Z,1.25
2024-01-16T20:51:26.142Z,1.70
2024-01-16T20:53:53.111Z,1.28
2024-01-16T20:56:19.751Z,1.21
2024-01-16T20:58:46.285Z,1.09
2024-01-16T21:01:12.803Z,0.84
2024-01-16T21:03:39.674Z,1.32
2024-01-16T21:06:09.499Z,1.50
2024-01-16T21:08:37.060Z,1.20
2024-01-16T21:11:03.718Z,1.20
2024-01-16T21:13:30.846Z,1.08
2024-01-16T21:16:00.173Z,1.09
2024-01-16T21:18:32.134Z,1.02
2024-01-16T21:20:58.984Z,1.18
2024-01-16T21:23:25.500Z,1.09
2024-01-16T21:25:52.000Z,1.04
2024-01-16T21:28:18.775Z,1.05
2024-01-16T21:30:45.396Z,1.25
2024-01-16T21:33:13.655Z,0.98
2024-01-16T21:35:42.481Z,0.83
2024-01-16T21:38:09.113Z,0.64
2024-01-16T21:40:36.235Z,0.79
2024-01-16T21:43:04.576Z,0.94
2024-01-16T21:45:31.973Z,0.84
2024-01-16T21:47:58.647Z,0.84
2024-01-16T21:50:33.653Z,1.03
2024-01-16T21:53:04.910Z,0.76
2024-01-16T21:55:31.503Z,0.53
2024-01-16T21:57:58.110Z,0.78
2024-01-16T22:00:24.713Z,0.86
2024-01-16T22:02:57.764Z,0.34
2024-01-16T22:05:26.643Z,0.72
2024-01-16T22:07:53.241Z,0.56
2024-01-16T22:10:19.711Z,0.51
2024-01-16T22:12:46.654Z,0.19
2024-01-16T22:15:13.627Z,0.19
2024-01-16T22:17:40.359Z,0.22
2024-01-16T22:20:07.581Z,0.46
2024-01-16T22:22:34.217Z,0.25
2024-01-16T22:25:00.820Z,0.37
2024-01-16T22:27:27.365Z,-0.03
2024-01-16T22:29:53.936Z,0.40
2024-01-16T22:32:22.116Z,0.29
2024-01-16T22:34:48.838Z,0.54
2024-01-16T22:37:15.579Z,0.46
2024-01-16T22:39:44.986Z,0.08
2024-01-16T22:42:11.529Z,0.49
2024-01-16T22:44:39.705Z,0.56
2024-01-16T22:47:06.774Z,0.13
2024-01-16T22:49:36.357Z,0.19
2024-01-16T22:52:03.241Z,0.34
2024-01-16T22:54:29.740Z,-0.03
2024-01-16T22:56:56.294Z,0.11
2024-01-16T22:59:22.788Z,-0.25
2024-01-16T23:01:49.378Z,0.15
2024-01-16T23:04:15.967Z,-0.28
2024-01-16T23:06:42.538Z,-0.16
2024-01-16T23:09:10.631Z,-0.24
2024-01-16T23:11:37.186Z,-0.45
2024-01-16T23:14:03.732Z,-0.24
2024-01-16T23:16:30.303Z,0.08
2024-01-16T23:18:57.207Z,-0.09
2024-01-16T23:21:25.165Z,-0.31
2024-01-16T23:23:54.780Z,-0.42
2024-01-16T23:26:23.457Z,-0.31
2024-01-16T23:28:50.096Z,-0.44
2024-01-16T23:31:17.537Z,-0.26
2024-01-16T23:33:44.395Z,-0.49
2024-01-16T23:36:11.134Z,-0.50
2024-01-16T23:38:39.964Z,-0.30
2024-01-16T23:41:10.197Z,-0.39
2024-01-16T23:43:38.153Z,-0.50
2024-01-16T23:46:08.478Z,-0.14
2024-01-16T23:48:35.388Z,-0.43
2024-01-16T23:51:03.226Z,-0.54
2024-01-16T23:53:30.326Z,-0.34
2024-01-16T23:55:57.578Z,-0.26
2024-01-16T23:58:25.488Z,-0.58
